Time;durP1;ratioP1;P1;durP2;ratioP2;P2;SDS_P1;SDS_P2;PMS_P1;PMS_P2;Temp;Humidity;BMP_temperature;BMP_pressure;BME280_temperature;BME280_humidity;BME280_pressure;Samples;Min_cycle;Max_cycle;Signal;HPM_P1;HPM_P2
2022/09/21 00:01:13;;;;;;;8.63;3.30;;;5.80;99.90;;;;;;5014711;28;20454;-71
2022/09/21 00:03:40;;;;;;;5.53;3.40;;;5.80;99.90;;;;;;5015464;28;20418;-71
2022/09/21 00:06:12;;;;;;;4.77;3.03;;;5.80;99.90;;;;;;5015000;28;20772;-72
2022/09/21 00:08:38;;;;;;;5.00;3.10;;;5.80;99.90;;;;;;5015184;28;20472;-72
2022/09/21 00:11:04;;;;;;;3.13;2.60;;;5.80;99.90;;;;;;5014624;28;20436;-74
2022/09/21 00:13:32;;;;;;;6.37;2.70;;;5.80;99.90;;;;;;5014821;28;20206;-73
2022/09/21 00:15:58;;;;;;;6.00;3.20;;;5.80;99.90;;;;;;5014876;28;20416;-72
2022/09/21 00:18:24;;;;;;;4.70;3.27;;;5.80;99.90;;;;;;5014816;28;20496;-72
2022/09/21 00:20:51;;;;;;;8.23;3.90;;;5.70;99.90;;;;;;5014402;28;20809;-74
2022/09/21 00:23:17;;;;;;;5.23;3.50;;;5.70;99.90;;;;;;5014761;28;20402;-72
2022/09/21 00:25:42;;;;;;;5.73;3.23;;;5.60;99.90;;;;;;5014920;28;20976;-73
2022/09/21 00:28:08;;;;;;;5.80;3.63;;;5.60;99.90;;;;;;5014667;28;20610;-72
2022/09/21 00:30:34;;;;;;;3.73;3.03;;;5.60;99.90;;;;;;5014651;28;20198;-71
2022/09/21 00:32:59;;;;;;;4.50;3.33;;;5.60;99.90;;;;;;5014411;28;20224;-71
2022/09/21 00:35:25;;;;;;;5.03;3.33;;;5.60;99.90;;;;;;5014543;28;20188;-74
2022/09/21 00:37:50;;;;;;;4.53;3.57;;;5.60;99.90;;;;;;5014572;28;20671;-72
2022/09/21 00:40:16;;;;;;;7.50;4.00;;;5.60;99.90;;;;;;5013349;28;20201;-72
2022/09/21 00:42:41;;;;;;;4.57;3.43;;;5.50;99.90;;;;;;5014240;28;20571;-73
2022/09/21 00:45:19;;;;;;;4.80;3.70;;;5.50;99.90;;;;;;5014448;28;20191;-72
2022/09/21 00:47:48;;;;;;;8.20;3.40;;;5.50;99.90;;;;;;5014275;28;20176;-72
2022/09/21 00:50:18;;;;;;;8.57;4.70;;;5.50;99.90;;;;;;5014043;28;20417;-74
2022/09/21 00:52:50;;;;;;;5.30;3.20;;;5.50;99.90;;;;;;5014083;28;20470;-72
2022/09/21 00:55:25;;;;;;;8.13;3.67;;;5.40;99.90;;;;;;5014243;28;20423;-71
2022/09/21 00:57:55;;;;;;;4.50;3.70;;;5.40;99.90;;;;;;5014156;28;20425;-73
2022/09/21 02:31:14;;;;;;;8.70;3.67;;;4.70;99.90;;;;;;5958529;22;20476;-70
2022/09/21 02:33:50;;;;;;;3.10;2.53;;;4.70;99.90;;;;;;5045392;28;20472;-73
2022/09/21 02:36:27;;;;;;;3.07;2.77;;;4.60;99.90;;;;;;5011685;28;20442;-72
2022/09/21 02:39:18;;;;;;;3.50;3.20;;;4.60;99.90;;;;;;5012279;28;20924;-72
2022/09/21 02:41:56;;;;;;;6.03;2.80;;;4.60;99.90;;;;;;5011275;28;20800;-74
2022/09/21 02:44:37;;;;;;;8.40;3.37;;;4.60;99.90;;;;;;5012161;28;20420;-72
2022/09/21 02:47:21;;;;;;;2.83;2.70;;;4.50;99.90;;;;;;5012094;28;20479;-73
2022/09/21 02:49:52;;;;;;;6.23;2.67;;;4.60;99.90;;;;;;5012247;28;20857;-73
2022/09/21 02:52:19;;;;;;;6.03;3.17;;;4.50;99.90;;;;;;5011953;28;20412;-73
2022/09/21 02:54:49;;;;;;;3.73;3.20;;;4.50;99.90;;;;;;5012313;28;20411;-73
2022/09/21 02:57:17;;;;;;;6.60;3.30;;;4.50;99.90;;;;;;5012012;28;20392;-73
2022/09/21 02:59:43;;;;;;;5.00;3.53;;;4.50;99.90;;;;;;5012026;28;20380;-73
2022/09/21 03:02:11;;;;;;;3.67;3.37;;;4.40;99.90;;;;;;5011614;28;20510;-73
2022/09/21 03:04:38;;;;;;;3.50;2.83;;;4.40;99.90;;;;;;5012149;28;20228;-73
2022/09/21 03:07:04;;;;;;;8.00;3.47;;;4.40;99.90;;;;;;5012043;28;20419;-73
2022/09/21 03:09:29;;;;;;;5.30;3.63;;;4.40;99.90;;;;;;5011870;28;20453;-73
2022/09/21 03:11:55;;;;;;;3.70;3.50;;;4.40;99.90;;;;;;5012082;28;20242;-72
2022/09/21 03:14:21;;;;;;;4.70;4.00;;;4.40;99.90;;;;;;5011834;28;20203;-73
2022/09/21 03:16:47;;;;;;;4.60;3.50;;;4.40;99.90;;;;;;5012201;28;20175;-74
2022/09/21 03:19:13;;;;;;;4.30;3.40;;;4.40;99.90;;;;;;5012153;28;20393;-73
2022/09/21 03:21:38;;;;;;;3.90;3.37;;;4.40;99.90;;;;;;5011966;28;20197;-74
2022/09/21 03:24:04;;;;;;;4.43;4.00;;;4.40;99.90;;;;;;5012098;28;20572;-72
2022/09/21 03:26:29;;;;;;;3.00;2.80;;;4.30;99.90;;;;;;5011787;28;20182;-73
2022/09/21 03:28:55;;;;;;;3.67;2.90;;;4.30;99.90;;;;;;5011809;28;20178;-73
2022/09/21 03:31:21;;;;;;;4.73;3.60;;;4.30;99.90;;;;;;5011545;28;20690;-72
2022/09/21 03:33:47;;;;;;;3.37;3.07;;;4.30;99.90;;;;;;5011908;28;20208;-72
2022/09/21 03:36:12;;;;;;;4.80;3.30;;;4.30;99.90;;;;;;5011755;28;20420;-73
2022/09/21 03:38:38;;;;;;;9.17;4.60;;;4.30;99.90;;;;;;5011768;28;20180;-73
2022/09/21 03:41:04;;;;;;;5.00;3.17;;;4.30;99.90;;;;;;5011543;28;20576;-73
2022/09/21 03:43:30;;;;;;;4.60;3.70;;;4.30;99.90;;;;;;5011483;28;20429;-73
2022/09/21 03:45:56;;;;;;;4.57;3.10;;;4.20;99.90;;;;;;5011733;28;20423;-73
2022/09/21 03:48:22;;;;;;;3.67;3.23;;;4.20;99.90;;;;;;5011748;28;20442;-72
2022/09/21 03:50:48;;;;;;;6.37;3.53;;;4.20;99.90;;;;;;5011510;28;20525;-72
2022/09/21 03:53:14;;;;;;;5.50;3.90;;;4.20;99.90;;;;;;5011275;28;20554;-72
2022/09/21 03:55:40;;;;;;;7.37;4.33;;;4.20;99.90;;;;;;5011699;28;20231;-72
2022/09/21 03:58:06;;;;;;;4.90;4.03;;;4.20;99.90;;;;;;5011506;28;20189;-73
2022/09/21 04:00:32;;;;;;;5.00;3.80;;;4.20;99.90;;;;;;5011736;28;20394;-72
2022/09/21 04:02:57;;;;;;;6.57;3.27;;;4.20;99.90;;;;;;5011515;28;20530;-73
2022/09/21 04:05:23;;;;;;;4.27;3.90;;;4.10;99.90;;;;;;5011537;28;20956;-72
2022/09/21 04:07:49;;;;;;;4.80;3.47;;;4.10;99.90;;;;;;5011494;28;20184;-73
2022/09/21 04:10:20;;;;;;;7.20;3.40;;;4.10;99.90;;;;;;5011099;28;20558;-73
2022/09/21 04:12:46;;;;;;;5.80;4.83;;;4.10;99.90;;;;;;5011318;28;20295;-73
2022/09/21 04:15:18;;;;;;;5.87;3.60;;;4.10;99.90;;;;;;5014049;28;20541;-72
2022/09/21 04:17:44;;;;;;;4.80;3.57;;;4.10;99.90;;;;;;5013740;28;20413;-73
2022/09/21 04:20:10;;;;;;;5.00;4.13;;;4.00;99.90;;;;;;5014804;28;20981;-72
2022/09/21 04:22:36;;;;;;;7.27;3.70;;;4.00;99.90;;;;;;5014824;28;20436;-73
2022/09/21 04:25:03;;;;;;;8.47;4.50;;;4.00;99.90;;;;;;5015102;28;20604;-73
2022/09/21 04:27:31;;;;;;;8.17;4.10;;;4.00;99.90;;;;;;5014739;28;20193;-73
2022/09/21 04:29:56;;;;;;;4.90;4.23;;;4.00;99.90;;;;;;5014924;28;20393;-72
2022/09/21 04:32:22;;;;;;;6.07;4.27;;;4.00;99.90;;;;;;5014829;28;20426;-73
2022/09/21 04:34:47;;;;;;;10.67;4.20;;;4.00;99.90;;;;;;5015062;28;20180;-72
2022/09/21 04:37:13;;;;;;;6.90;4.67;;;4.00;99.90;;;;;;5014557;28;20554;-73
2022/09/21 04:39:39;;;;;;;4.70;3.43;;;3.90;99.90;;;;;;5014479;28;20268;-71
2022/09/21 04:42:05;;;;;;;4.40;3.47;;;3.90;99.90;;;;;;5014046;28;20195;-74
2022/09/21 04:44:30;;;;;;;6.83;4.37;;;3.90;99.90;;;;;;5014544;28;20420;-73
2022/09/21 04:46:56;;;;;;;9.03;3.50;;;3.90;99.90;;;;;;5014582;28;20476;-74
2022/09/21 04:49:22;;;;;;;5.43;4.20;;;3.90;99.90;;;;;;5014638;28;20676;-74
2022/09/21 04:51:48;;;;;;;6.47;4.37;;;3.90;99.90;;;;;;5014211;28;20524;-71
2022/09/21 04:54:14;;;;;;;8.33;5.03;;;3.90;99.90;;;;;;5014382;28;20230;-72
2022/09/21 04:56:39;;;;;;;7.37;4.40;;;3.90;99.90;;;;;;5014265;28;20416;-72
2022/09/21 04:59:05;;;;;;;6.40;4.43;;;3.90;99.90;;;;;;5014376;28;20255;-73
2022/09/21 05:01:30;;;;;;;6.33;3.93;;;3.90;99.90;;;;;;5014481;28;20205;-73
2022/09/21 05:04:01;;;;;;;7.23;5.50;;;4.00;99.90;;;;;;5014505;28;20254;-73
2022/09/21 05:06:28;;;;;;;4.30;3.90;;;4.00;99.90;;;;;;5014476;28;20184;-74
2022/09/21 05:11:39;;;;;;;5.00;3.93;;;4.00;99.90;;;;;;5014126;28;20431;-73
2022/09/21 05:14:05;;;;;;;9.37;3.70;;;4.00;99.90;;;;;;5014161;28;20462;-73
2022/09/21 05:16:31;;;;;;;7.33;4.67;;;4.00;99.90;;;;;;5013900;28;20179;-73
2022/09/21 05:18:56;;;;;;;10.33;3.63;;;4.00;99.90;;;;;;5013982;28;20429;-72
2022/09/21 05:21:22;;;;;;;9.33;4.10;;;4.00;99.90;;;;;;5013414;28;20739;-72
2022/09/21 05:23:48;;;;;;;8.50;4.47;;;4.00;99.90;;;;;;5013804;28;20171;-73
2022/09/21 05:26:13;;;;;;;10.23;5.17;;;4.00;99.90;;;;;;5013272;28;20388;-73
2022/09/21 05:28:39;;;;;;;5.83;4.40;;;4.10;99.90;;;;;;5013649;28;20546;-73
2022/09/21 05:31:17;;;;;;;10.70;4.90;;;4.10;99.90;;;;;;5013335;28;20244;-73
2022/09/21 05:34:04;;;;;;;8.97;5.63;;;4.20;99.90;;;;;;5013600;28;20235;-73
2022/09/21 05:36:51;;;;;;;7.73;5.00;;;4.20;99.90;;;;;;5013374;28;20413;-73
2022/09/21 05:39:17;;;;;;;5.30;4.80;;;4.30;99.90;;;;;;5013400;28;20415;-73
2022/09/21 05:41:42;;;;;;;11.73;4.57;;;4.30;99.90;;;;;;5013235;28;20454;-73
2022/09/21 05:44:13;;;;;;;7.27;4.83;;;4.40;99.90;;;;;;5013565;28;20287;-73
2022/09/21 05:46:41;;;;;;;5.93;5.33;;;4.50;99.90;;;;;;5013536;28;20602;-73
2022/09/21 05:49:28;;;;;;;7.80;4.97;;;4.60;99.90;;;;;;5013534;28;20979;-73
2022/09/21 05:52:27;;;;;;;5.57;4.80;;;4.70;99.90;;;;;;5012986;28;20483;-73
2022/09/21 05:55:08;;;;;;;5.23;4.00;;;5.20;99.90;;;;;;5013165;28;20956;-73
2022/09/21 05:58:00;;;;;;;7.17;4.33;;;6.70;99.90;;;;;;5013030;28;20435;-73
2022/09/21 06:00:35;;;;;;;5.47;3.70;;;8.60;99.90;;;;;;5012679;28;20415;-74
2022/09/21 06:03:28;;;;;;;5.23;3.53;;;10.60;99.90;;;;;;5012949;28;20906;-71
2022/09/21 06:05:57;;;;;;;4.53;3.43;;;12.20;99.90;;;;;;5013059;28;20409;-71
2022/09/21 06:08:24;;;;;;;6.30;4.30;;;13.40;99.90;;;;;;5012780;28;20456;-71
2022/09/21 06:10:50;;;;;;;5.17;4.07;;;14.70;99.90;;;;;;5013015;28;20409;-72
2022/09/21 06:13:16;;;;;;;4.30;3.70;;;14.90;99.90;;;;;;5013163;28;20457;-71
2022/09/21 06:15:42;;;;;;;4.93;3.77;;;15.60;99.90;;;;;;5013021;28;20418;-72
2022/09/21 06:18:08;;;;;;;6.03;3.70;;;16.50;99.90;;;;;;5012745;28;20265;-72
2022/09/21 06:20:34;;;;;;;5.60;4.30;;;16.40;99.90;;;;;;5012496;28;20182;-70
2022/09/21 06:23:04;;;;;;;6.90;3.93;;;17.00;99.90;;;;;;5012593;28;20418;-72
2022/09/21 06:25:30;;;;;;;3.83;3.53;;;17.40;99.90;;;;;;5012386;28;20186;-72
2022/09/21 06:28:00;;;;;;;5.93;4.80;;;17.70;99.90;;;;;;5012558;28;20825;-71
2022/09/21 06:30:25;;;;;;;6.43;4.90;;;18.00;99.90;;;;;;5012130;28;20178;-72
2022/09/21 06:32:51;;;;;;;26.33;5.80;;;18.70;99.90;;;;;;5012205;28;20842;-72
2022/09/21 06:35:16;;;;;;;11.60;5.50;;;18.70;99.90;;;;;;5012240;28;20174;-72
2022/09/21 06:37:42;;;;;;;7.10;5.03;;;18.70;99.90;;;;;;5011795;28;20175;-73
2022/09/21 06:40:08;;;;;;;9.43;5.70;;;19.70;99.90;;;;;;5012079;28;20649;-72
2022/09/21 06:42:33;;;;;;;8.33;5.50;;;20.10;99.90;;;;;;5012279;28;20233;-72
2022/09/21 06:44:59;;;;;;;8.90;5.90;;;20.90;99.90;;;;;;5012397;28;20649;-72
2022/09/21 06:47:24;;;;;;;7.80;5.60;;;20.40;99.90;;;;;;5012270;28;20257;-72
2022/09/21 06:49:52;;;;;;;8.70;6.50;;;20.30;99.90;;;;;;5012086;28;20182;-70
2022/09/21 06:52:18;;;;;;;6.63;4.40;;;20.50;99.90;;;;;;5011936;28;20198;-72
2022/09/21 06:54:43;;;;;;;8.57;5.90;;;20.10;99.90;;;;;;5012181;28;21076;-72
2022/09/21 06:57:09;;;;;;;8.60;6.13;;;20.40;99.90;;;;;;5011850;28;20186;-72
2022/09/21 06:59:34;;;;;;;13.33;6.43;;;20.30;99.90;;;;;;5012275;28;20175;-72
2022/09/21 07:02:00;;;;;;;7.50;5.57;;;20.10;99.90;;;;;;5011894;28;20191;-71
2022/09/21 07:04:25;;;;;;;10.60;6.83;;;19.70;99.90;;;;;;5012144;28;20178;-72
2022/09/21 07:06:51;;;;;;;8.93;6.23;;;19.10;99.90;;;;;;5011950;28;20178;-72
2022/09/21 07:09:18;;;;;;;11.73;6.30;;;18.60;99.90;;;;;;5011916;28;20673;-72
2022/09/21 07:11:43;;;;;;;7.53;5.97;;;17.80;99.90;;;;;;5011654;28;20458;-72
2022/09/21 07:14:08;;;;;;;10.17;7.17;;;17.70;99.90;;;;;;5011733;28;20895;-72
2022/09/21 07:16:34;;;;;;;8.30;6.93;;;17.40;99.90;;;;;;5012027;28;20186;-72
2022/09/21 07:19:01;;;;;;;14.33;8.03;;;17.00;99.90;;;;;;5011646;28;20536;-71
2022/09/21 07:21:26;;;;;;;13.03;8.23;;;16.70;99.90;;;;;;5011464;28;20683;-72
2022/09/21 07:23:51;;;;;;;8.90;7.00;;;16.70;99.90;;;;;;5011868;28;20409;-72
2022/09/21 07:26:17;;;;;;;9.93;6.90;;;17.00;99.90;;;;;;5011675;28;20189;-72
2022/09/21 07:28:43;;;;;;;11.10;6.60;;;17.00;99.90;;;;;;5010458;28;20182;-72
2022/09/21 07:31:13;;;;;;;14.07;6.80;;;17.10;99.90;;;;;;5011277;28;20198;-71
2022/09/21 07:33:40;;;;;;;8.80;7.03;;;17.00;99.90;;;;;;5011623;28;20234;-71
2022/09/21 07:36:09;;;;;;;14.37;7.70;;;16.80;99.90;;;;;;5011775;28;20417;-72
2022/09/21 07:38:38;;;;;;;10.93;6.70;;;17.00;99.90;;;;;;5011496;28;20495;-72
2022/09/21 07:41:09;;;;;;;9.03;6.53;;;17.10;99.90;;;;;;5011374;28;20507;-72
2022/09/21 07:43:38;;;;;;;8.90;5.97;;;17.20;99.90;;;;;;5011679;28;20864;-71
2022/09/21 07:46:04;;;;;;;11.37;6.23;;;17.10;99.90;;;;;;5011596;28;20419;-71
2022/09/21 07:48:29;;;;;;;7.97;6.03;;;17.00;99.90;;;;;;5013045;28;20427;-72
2022/09/21 07:51:03;;;;;;;6.63;5.50;;;17.20;99.90;;;;;;5015718;28;20900;-72
2022/09/21 07:53:30;;;;;;;7.40;5.30;;;17.10;99.90;;;;;;5015469;28;20658;-71
2022/09/21 07:56:03;;;;;;;7.37;6.03;;;17.10;99.90;;;;;;5015837;28;20440;-71
2022/09/21 08:01:13;;;;;;;8.37;5.80;;;17.30;99.90;;;;;;5015444;28;20533;-72
2022/09/21 08:03:39;;;;;;;8.00;5.43;;;17.70;99.90;;;;;;5015323;28;20972;-71
2022/09/21 08:06:05;;;;;;;9.07;5.63;;;17.70;99.90;;;;;;5015411;28;20202;-71
2022/09/21 08:08:31;;;;;;;7.07;5.10;;;17.50;99.90;;;;;;5015419;28;20182;-73
2022/09/21 08:11:02;;;;;;;10.40;6.07;;;17.70;99.90;;;;;;5014949;28;20502;-73
2022/09/21 08:13:28;;;;;;;7.90;5.60;;;17.90;99.90;;;;;;5015049;28;20256;-73
2022/09/21 08:16:01;;;;;;;8.63;5.97;;;18.00;99.90;;;;;;5015286;28;20406;-73
2022/09/21 08:18:27;;;;;;;6.80;5.60;;;18.50;99.90;;;;;;5014898;28;20281;-73
2022/09/21 08:20:54;;;;;;;8.77;5.20;;;18.60;99.90;;;;;;5014847;28;22183;-73
2022/09/21 08:23:20;;;;;;;5.57;4.60;;;18.60;99.90;;;;;;5014975;28;20409;-73
2022/09/21 08:25:45;;;;;;;8.63;4.13;;;18.50;99.90;;;;;;5015181;28;20417;-73
2022/09/21 08:28:11;;;;;;;4.40;4.00;;;18.60;99.90;;;;;;5015038;28;20182;-73
2022/09/21 08:30:36;;;;;;;9.33;4.90;;;18.20;99.90;;;;;;5014635;28;20190;-72
2022/09/21 08:33:02;;;;;;;4.53;4.10;;;18.40;99.90;;;;;;5014985;28;20206;-73
2022/09/21 08:35:28;;;;;;;7.50;4.13;;;18.60;99.90;;;;;;5014835;28;20167;-72
2022/09/21 08:37:53;;;;;;;4.10;3.80;;;18.80;99.90;;;;;;5014914;28;20520;-72
2022/09/21 08:40:19;;;;;;;8.50;5.20;;;18.90;99.90;;;;;;5014424;28;20178;-73
2022/09/21 08:42:51;;;;;;;4.93;3.43;;;18.90;99.90;;;;;;5014769;28;20202;-73
2022/09/21 08:45:19;;;;;;;7.40;4.00;;;19.00;99.90;;;;;;5014894;28;20636;-73
2022/09/21 08:47:57;;;;;;;6.67;4.30;;;19.00;99.90;;;;;;5014710;28;20787;-72
2022/09/21 08:50:25;;;;;;;5.50;3.73;;;19.40;99.90;;;;;;5014529;28;20929;-72
2022/09/21 08:52:57;;;;;;;6.40;3.83;;;19.90;99.90;;;;;;5014855;28;20550;-72
2022/09/21 08:55:23;;;;;;;8.87;4.43;;;19.70;99.90;;;;;;5014487;28;20468;-73
2022/09/21 08:57:49;;;;;;;5.00;3.97;;;19.60;99.90;;;;;;5014350;28;20417;-73
2022/09/21 09:00:17;;;;;;;4.00;3.63;;;19.80;99.90;;;;;;5013327;28;20413;-73
2022/09/21 09:03:14;;;;;;;8.03;4.10;;;19.70;99.90;;;;;;5014293;28;20194;-72
2022/09/21 09:05:58;;;;;;;6.00;4.20;;;19.70;99.90;;;;;;5014275;28;20406;-73
2022/09/21 09:08:38;;;;;;;6.13;3.30;;;20.10;99.90;;;;;;5014735;28;20476;-73
2022/09/21 09:11:28;;;;;;;10.47;3.73;;;20.00;99.90;;;;;;5015199;28;20432;-74
2022/09/21 09:14:13;;;;;;;6.53;3.70;;;19.70;99.90;;;;;;5014562;28;20480;-73
2022/09/21 09:16:53;;;;;;;4.87;4.00;;;19.70;99.90;;;;;;5015559;28;20397;-73
2022/09/21 09:19:46;;;;;;;6.70;3.87;;;20.30;99.90;;;;;;5015418;28;20405;-73
2022/09/21 09:22:16;;;;;;;3.47;3.10;;;20.80;99.90;;;;;;5015371;28;20484;-74
2022/09/21 09:24:47;;;;;;;5.53;2.83;;;20.90;99.90;;;;;;5014644;28;20471;-74
2022/09/21 09:27:26;;;;;;;3.13;2.83;;;20.70;99.90;;;;;;5013880;28;20405;-73
2022/09/21 09:29:58;;;;;;;6.93;2.50;;;20.60;99.90;;;;;;5014247;28;20445;-73
2022/09/21 09:32:33;;;;;;;3.10;2.80;;;20.60;99.90;;;;;;5013377;28;20492;-73
2022/09/21 09:35:14;;;;;;;3.10;2.10;;;20.20;99.90;;;;;;5013969;28;20517;-73
2022/09/21 09:37:41;;;;;;;3.73;1.90;;;20.60;99.90;;;;;;5013580;28;20437;-73
2022/09/21 09:40:07;;;;;;;3.17;1.70;;;21.30;99.90;;;;;;5013683;28;20398;-73
2022/09/21 09:43:01;;;;;;;2.57;1.93;;;21.70;99.90;;;;;;5013497;28;20457;-73
2022/09/21 09:45:36;;;;;;;3.90;0.97;;;21.80;99.90;;;;;;5013575;28;20187;-73
2022/09/21 09:48:25;;;;;;;2.57;1.20;;;22.00;99.90;;;;;;5013455;28;20401;-73
2022/09/21 09:50:51;;;;;;;2.60;1.10;;;21.80;99.90;;;;;;5013384;28;20400;-73
2022/09/21 09:53:20;;;;;;;2.50;0.83;;;22.00;99.90;;;;;;5013288;28;20548;-73
2022/09/21 09:55:48;;;;;;;3.30;0.70;;;21.70;99.90;;;;;;5013596;28;20183;-73
2022/09/21 09:58:20;;;;;;;4.10;0.90;;;21.10;99.90;;;;;;5013188;28;20497;-73
2022/09/21 10:00:50;;;;;;;2.70;0.80;;;21.20;99.90;;;;;;5013072;28;20460;-73
2022/09/21 10:03:24;;;;;;;2.07;0.90;;;21.40;99.90;;;;;;5013226;28;20461;-73
2022/09/21 10:05:50;;;;;;;1.20;0.63;;;21.10;99.90;;;;;;5013263;28;20406;-73
2022/09/21 10:08:38;;;;;;;2.53;0.90;;;21.20;99.90;;;;;;5012962;28;20988;-73
2022/09/21 10:11:04;;;;;;;2.10;1.00;;;21.40;99.90;;;;;;5012404;28;20564;-73
2022/09/21 10:13:34;;;;;;;2.63;0.83;;;21.60;99.90;;;;;;5012433;28;20970;-73
2022/09/21 10:16:21;;;;;;;0.93;0.80;;;21.80;99.90;;;;;;5012987;28;20502;-73
2022/09/21 10:18:57;;;;;;;1.17;0.83;;;22.20;99.90;;;;;;5012955;28;20940;-73
2022/09/21 10:21:26;;;;;;;4.03;0.83;;;23.00;99.90;;;;;;5011439;28;20516;-73
2022/09/21 10:24:04;;;;;;;1.33;1.23;;;22.60;99.90;;;;;;5012974;28;20457;-73
2022/09/21 10:26:46;;;;;;;1.47;0.70;;;22.00;99.90;;;;;;5012663;28;20460;-73
2022/09/21 10:29:21;;;;;;;1.97;0.60;;;22.10;99.90;;;;;;5012911;28;20968;-73
2022/09/21 10:32:06;;;;;;;2.40;0.80;;;22.00;99.90;;;;;;5012472;28;20452;-73
2022/09/21 10:34:33;;;;;;;0.60;0.60;;;21.60;99.90;;;;;;5012503;28;20457;-73
2022/09/21 10:37:27;;;;;;;3.23;0.90;;;21.50;99.90;;;;;;5012630;28;20413;-73
2022/09/21 10:39:54;;;;;;;4.60;1.47;;;22.30;99.90;;;;;;5012717;28;20409;-73
2022/09/21 10:42:20;;;;;;;2.43;1.50;;;21.60;99.90;;;;;;5012122;28;20464;-73
2022/09/21 10:45:03;;;;;;;3.63;1.77;;;21.50;99.90;;;;;;5011399;28;20561;-73
2022/09/21 10:47:40;;;;;;;1.57;1.47;;;21.40;99.90;;;;;;5012388;28;20421;-73
2022/09/21 10:50:38;;;;;;;2.07;1.70;;;20.30;99.90;;;;;;5012349;28;20456;-72
2022/09/21 10:53:09;;;;;;;1.57;1.53;;;19.90;99.90;;;;;;5000119;28;20473;-73
2022/09/21 10:55:42;;;;;;;4.63;2.07;;;19.50;99.90;;;;;;5012154;28;20820;-73
2022/09/21 10:58:10;;;;;;;3.87;2.17;;;19.30;99.90;;;;;;5012326;28;20429;-73
2022/09/21 11:00:50;;;;;;;2.80;2.00;;;18.80;99.90;;;;;;5011998;28;20460;-71
2022/09/21 11:03:30;;;;;;;2.10;1.70;;;18.50;99.90;;;;;;5012182;28;20412;-73
2022/09/21 11:06:20;;;;;;;3.60;1.53;;;18.60;99.90;;;;;;5012302;28;20417;-73
2022/09/21 11:09:05;;;;;;;3.63;1.50;;;18.80;99.90;;;;;;5012162;28;20413;-73
2022/09/21 11:12:00;;;;;;;3.83;1.20;;;18.50;99.90;;;;;;5011744;28;20448;-73
2022/09/21 11:14:43;;;;;;;1.70;1.23;;;18.20;99.90;;;;;;5011793;28;20826;-73
2022/09/21 11:17:12;;;;;;;3.03;1.67;;;18.00;99.90;;;;;;5012281;28;20828;-73
2022/09/21 11:19:48;;;;;;;5.03;1.10;;;18.30;99.90;;;;;;5011971;28;20785;-73
2022/09/21 11:22:41;;;;;;;2.57;1.87;;;18.00;99.90;;;;;;5011644;28;20432;-73
2022/09/21 11:25:35;;;;;;;2.77;1.17;;;17.80;99.90;;;;;;5012384;28;20414;-73
2022/09/21 11:28:30;;;;;;;1.50;1.03;;;17.70;99.90;;;;;;5012342;28;20406;-73
2022/09/21 11:31:05;;;;;;;1.73;0.77;;;18.30;99.90;;;;;;5011734;28;20953;-73
2022/09/21 11:33:36;;;;;;;2.23;1.03;;;18.60;99.90;;;;;;5011980;28;20460;-73
2022/09/21 11:36:11;;;;;;;2.43;0.80;;;19.00;99.90;;;;;;5012276;28;20406;-73
2022/09/21 11:39:00;;;;;;;2.40;1.00;;;19.40;99.90;;;;;;5012517;28;20492;-73
2022/09/21 11:41:44;;;;;;;2.00;0.90;;;19.70;99.90;;;;;;5012092;28;20449;-73
2022/09/21 11:44:24;;;;;;;1.47;0.90;;;19.70;99.90;;;;;;5011854;28;20413;-72
2022/09/21 11:47:09;;;;;;;1.97;0.80;;;19.50;99.90;;;;;;5012178;28;20428;-73
2022/09/21 11:49:47;;;;;;;1.07;0.70;;;19.80;99.90;;;;;;5011850;28;20413;-73
2022/09/21 11:52:20;;;;;;;3.27;0.93;;;19.50;99.90;;;;;;5011366;28;20436;-72
2022/09/21 11:55:10;;;;;;;1.30;0.80;;;19.40;99.90;;;;;;5011456;28;20548;-73
2022/09/21 11:57:55;;;;;;;2.07;0.80;;;18.70;99.90;;;;;;5011442;28;20406;-73
2022/09/21 12:00:23;;;;;;;2.60;0.97;;;18.50;99.90;;;;;;5011288;28;20414;-70
2022/09/21 12:03:07;;;;;;;0.80;0.67;;;18.10;99.90;;;;;;5011504;28;20433;-73
2022/09/21 12:05:56;;;;;;;0.70;0.70;;;17.90;99.90;;;;;;5011450;28;20409;-73
2022/09/21 12:08:50;;;;;;;0.90;0.80;;;17.80;99.90;;;;;;5011324;28;20406;-73
2022/09/21 12:11:18;;;;;;;1.37;0.60;;;18.30;99.90;;;;;;5011373;28;20433;-73
2022/09/21 12:14:02;;;;;;;1.20;0.80;;;18.80;99.90;;;;;;5012559;28;20468;-73
2022/09/21 12:16:56;;;;;;;3.77;0.60;;;18.90;99.90;;;;;;5011805;28;20467;-73
2022/09/21 12:19:37;;;;;;;1.17;0.60;;;19.00;99.90;;;;;;5011389;28;20410;-73
2022/09/21 12:22:27;;;;;;;1.13;0.50;;;18.70;99.90;;;;;;5011320;28;20421;-72
2022/09/21 12:25:02;;;;;;;1.20;0.80;;;18.50;99.90;;;;;;5010226;28;20460;-72
2022/09/21 12:27:38;;;;;;;1.63;0.60;;;18.20;99.90;;;;;;5011403;28;20409;-72
2022/09/21 12:30:23;;;;;;;4.30;0.93;;;18.10;99.90;;;;;;5011403;28;20876;-73
2022/09/21 12:33:08;;;;;;;1.20;0.60;;;18.20;99.90;;;;;;5011303;28;20456;-73
2022/09/21 12:35:54;;;;;;;1.90;0.70;;;18.30;99.90;;;;;;5012869;28;20515;-73
2022/09/21 12:38:32;;;;;;;1.90;0.60;;;18.50;99.90;;;;;;5015017;28;20828;-73
2022/09/21 12:41:23;;;;;;;1.17;0.63;;;18.50;99.90;;;;;;5014607;28;20433;-72
2022/09/21 12:43:55;;;;;;;0.93;0.60;;;18.60;99.90;;;;;;5014917;28;20801;-73
2022/09/21 12:46:33;;;;;;;0.87;0.87;;;18.80;99.90;;;;;;5014757;28;20421;-73
2022/09/21 12:49:04;;;;;;;0.60;0.60;;;18.70;99.90;;;;;;5014896;28;20555;-73
2022/09/21 12:51:37;;;;;;;2.20;0.50;;;18.60;99.90;;;;;;5014323;28;20516;-73
2022/09/21 12:54:16;;;;;;;0.70;0.50;;;18.50;99.90;;;;;;5014627;28;20449;-73
2022/09/21 12:56:43;;;;;;;1.90;1.00;;;18.10;99.90;;;;;;5014668;28;20468;-73
2022/09/21 12:59:28;;;;;;;1.87;0.60;;;17.60;99.90;;;;;;5014375;28;20922;-72
2022/09/21 13:02:23;;;;;;;1.73;0.80;;;17.30;99.90;;;;;;5014173;28;20532;-73
2022/09/21 13:05:08;;;;;;;2.03;0.60;;;17.30;99.90;;;;;;5012541;28;21032;-73
2022/09/21 13:07:59;;;;;;;3.03;0.67;;;17.30;99.90;;;;;;5013922;28;20424;-73
2022/09/21 13:10:40;;;;;;;0.57;0.50;;;17.30;99.90;;;;;;5014124;28;20418;-73
2022/09/21 13:13:16;;;;;;;1.77;0.90;;;17.10;99.90;;;;;;5014164;28;20950;-73
2022/09/21 13:15:44;;;;;;;0.70;0.70;;;17.10;99.90;;;;;;5014344;28;20439;-73
2022/09/21 13:18:27;;;;;;;1.10;1.00;;;17.00;99.90;;;;;;5014058;28;20421;-73
2022/09/21 13:20:54;;;;;;;1.63;0.60;;;17.10;99.90;;;;;;5013985;28;20405;-73
2022/09/21 13:23:54;;;;;;;0.70;0.60;;;17.10;99.90;;;;;;5013868;28;20417;-73
2022/09/21 13:26:35;;;;;;;1.30;0.70;;;17.30;99.90;;;;;;5007007;28;20421;-73
2022/09/21 13:29:05;;;;;;;0.90;0.70;;;17.50;99.90;;;;;;5014125;28;20933;-73
2022/09/21 13:31:58;;;;;;;0.70;0.60;;;17.50;99.90;;;;;;5013339;28;20473;-73
2022/09/21 13:34:29;;;;;;;2.10;0.70;;;17.50;99.90;;;;;;5013813;28;21020;-73
2022/09/21 13:37:10;;;;;;;0.93;0.70;;;17.30;99.90;;;;;;5014071;28;20406;-73
2022/09/21 13:40:00;;;;;;;0.50;0.50;;;17.10;99.90;;;;;;5013791;28;20428;-73
2022/09/21 13:42:34;;;;;;;0.60;0.50;;;16.90;99.90;;;;;;5013421;28;20421;-72
2022/09/21 13:45:12;;;;;;;0.80;0.70;;;16.80;99.90;;;;;;5013865;28;20497;-73
2022/09/21 13:47:40;;;;;;;4.67;1.03;;;16.90;99.90;;;;;;5013321;28;20409;-72
2022/09/21 13:50:23;;;;;;;0.70;0.70;;;17.00;99.90;;;;;;5013775;28;20418;-73
2022/09/21 13:52:53;;;;;;;0.80;0.60;;;17.10;99.90;;;;;;5013441;28;20956;-73
2022/09/21 13:55:49;;;;;;;1.23;0.70;;;17.30;99.90;;;;;;5013460;28;20430;-73
2022/09/21 13:58:24;;;;;;;1.17;0.70;;;17.40;99.90;;;;;;5003915;28;20409;-72
2022/09/21 14:01:02;;;;;;;1.47;0.50;;;17.40;99.90;;;;;;5013232;28;20504;-73
2022/09/21 14:03:37;;;;;;;0.97;0.70;;;17.20;99.90;;;;;;5012987;28;20418;-73
2022/09/21 14:06:09;;;;;;;0.60;0.60;;;17.20;99.90;;;;;;5013369;28;20409;-73
2022/09/21 14:08:44;;;;;;;0.63;0.60;;;17.30;99.90;;;;;;5013158;28;20418;-72
2022/09/21 14:11:33;;;;;;;2.00;0.60;;;17.40;99.90;;;;;;5013169;28;20436;-73
2022/09/21 14:14:11;;;;;;;0.60;0.50;;;17.40;99.90;;;;;;5012777;28;20985;-73
2022/09/21 14:16:44;;;;;;;1.30;0.63;;;17.40;99.90;;;;;;5012987;28;20413;-73
2022/09/21 14:19:18;;;;;;;0.87;0.60;;;17.50;99.90;;;;;;5012622;28;20825;-72
2022/09/21 14:22:02;;;;;;;1.13;0.70;;;17.30;99.90;;;;;;5012570;28;20429;-72
2022/09/21 14:24:42;;;;;;;4.43;0.87;;;17.20;99.90;;;;;;5012432;28;20421;-73
2022/09/21 14:27:17;;;;;;;0.70;0.70;;;17.10;99.90;;;;;;5013051;28;20417;-73
2022/09/21 14:29:52;;;;;;;1.27;0.80;;;16.90;99.90;;;;;;5012558;28;20417;-73
2022/09/21 14:32:25;;;;;;;1.97;1.33;;;16.90;99.90;;;;;;5012226;28;20550;-72
2022/09/21 14:34:56;;;;;;;0.60;0.60;;;16.90;99.90;;;;;;5012483;28;21059;-73
2022/09/21 14:37:33;;;;;;;0.97;0.50;;;16.90;99.90;;;;;;5012713;28;20432;-73
2022/09/21 14:40:05;;;;;;;2.50;0.70;;;16.90;99.90;;;;;;5012312;28;20413;-73
2022/09/21 14:42:30;;;;;;;1.03;0.50;;;16.90;99.90;;;;;;5012245;28;20513;-73
2022/09/21 14:45:00;;;;;;;0.53;0.53;;;16.90;99.90;;;;;;5012298;28;20437;-73
2022/09/21 14:47:55;;;;;;;1.50;0.60;;;16.90;99.90;;;;;;5012516;28;20240;-72
2022/09/21 14:50:35;;;;;;;0.70;0.50;;;16.80;99.90;;;;;;5012279;28;20429;-73
2022/09/21 14:53:17;;;;;;;1.20;0.60;;;16.80;99.90;;;;;;5012415;28;20456;-73
2022/09/21 14:55:54;;;;;;;2.90;0.80;;;16.80;99.90;;;;;;5012614;28;20413;-73